createdAt,value
2022-08-28T00:00:43.158Z,3.95
2022-08-28T00:05:45.149Z,3.90
2022-08-28T00:10:47.341Z,3.33
2022-08-28T00:15:54.648Z,4.30
2022-08-28T00:20:57.052Z,4.40
2022-08-28T00:26:00.235Z,4.00
2022-08-28T00:31:02.211Z,3.45
2022-08-28T00:36:04.819Z,3.85
2022-08-28T00:41:06.721Z,3.95
2022-08-28T00:46:18.106Z,3.88
2022-08-28T00:51:38.971Z,3.85
2022-08-28T00:56:41.568Z,3.50
2022-08-28T01:01:45.493Z,3.95
2022-08-28T01:06:52.479Z,3.63
2022-08-28T01:12:00.653Z,4.50
2022-08-28T01:17:03.908Z,4.22
2022-08-28T01:22:38.585Z,4.10
2022-08-28T01:27:42.183Z,3.65
2022-08-28T01:32:47.417Z,3.95
2022-08-28T01:37:49.768Z,3.72
2022-08-28T01:42:51.811Z,4.28
2022-08-28T01:47:55.533Z,4.07
2022-08-28T01:52:57.281Z,4.60
2022-08-28T01:57:59.142Z,4.25
2022-08-28T02:03:01.909Z,4.05
2022-08-28T02:08:05.468Z,4.32
2022-08-28T02:13:08.264Z,4.05
2022-08-28T02:18:10.597Z,4.07
2022-08-28T02:23:13.782Z,4.10
2022-08-28T02:28:15.643Z,3.67
2022-08-28T02:33:17.450Z,3.78
2022-08-28T02:38:19.186Z,4.25
2022-08-28T02:43:20.865Z,4.38
2022-08-28T02:48:24.040Z,3.92
2022-08-28T02:53:25.990Z,4.25
2022-08-28T02:58:27.872Z,4.22
2022-08-28T03:03:31.165Z,4.30
2022-08-28T03:08:33.145Z,4.20
2022-08-28T03:13:35.306Z,4.53
2022-08-28T03:18:37.536Z,4.30
2022-08-28T03:23:39.780Z,4.40
2022-08-28T03:28:46.731Z,3.95
2022-08-28T03:33:52.556Z,3.60
2022-08-28T03:38:56.551Z,3.72
2022-08-28T03:44:02.041Z,3.08
2022-08-28T03:49:04.497Z,3.33
2022-08-28T03:54:06.704Z,2.90
2022-08-28T03:59:08.717Z,2.75
2022-08-28T04:04:10.581Z,2.88
2022-08-28T04:09:13.189Z,2.53
2022-08-28T04:14:14.945Z,2.13
2022-08-28T04:19:16.712Z,3.00
2022-08-28T04:24:18.468Z,2.67
2022-08-28T04:29:21.013Z,2.60
2022-08-28T04:34:22.749Z,2.58
2022-08-28T04:39:24.464Z,2.53
2022-08-28T04:44:26.968Z,2.08
2022-08-28T04:49:29.652Z,2.17
2022-08-28T04:54:34.150Z,2.20
2022-08-28T05:04:37.696Z,2.00
2022-08-28T05:09:39.408Z,2.63
2022-08-28T05:14:41.159Z,2.35
2022-08-28T05:19:43.712Z,2.08
2022-08-28T05:24:45.431Z,2.38
2022-08-28T05:29:50.449Z,2.83
2022-08-28T05:34:54.847Z,2.00
2022-08-28T05:44:59.452Z,2.35
2022-08-28T05:50:01.172Z,2.35
2022-08-28T05:55:03.116Z,2.55
2022-08-28T06:00:06.160Z,2.25
2022-08-28T06:05:09.522Z,2.80
2022-08-28T06:10:15.027Z,2.83
2022-08-28T06:15:16.803Z,2.60
2022-08-28T06:20:19.309Z,2.72
2022-08-28T06:25:21.072Z,3.28
2022-08-28T06:30:22.828Z,2.95
2022-08-28T06:35:24.505Z,2.60
2022-08-28T06:40:26.293Z,2.75
2022-08-28T06:45:28.049Z,3.28
2022-08-28T06:50:29.878Z,3.58
2022-08-28T06:55:31.614Z,3.53
2022-08-28T07:00:36.621Z,3.10
2022-08-28T07:05:38.329Z,3.67
2022-08-28T07:10:40.612Z,3.42
2022-08-28T07:15:42.373Z,3.53
2022-08-28T07:20:45.460Z,3.30
2022-08-28T07:25:47.154Z,4.28
2022-08-28T07:31:06.150Z,3.90
2022-08-28T07:36:22.056Z,3.58
2022-08-28T07:41:34.009Z,3.35
2022-08-28T07:46:38.713Z,3.75
2022-08-28T07:51:40.376Z,3.90
2022-08-28T07:56:42.172Z,3.40
2022-08-28T08:01:46.511Z,3.72
2022-08-28T08:06:50.658Z,4.15
2022-08-28T08:11:56.191Z,4.13
2022-08-28T08:17:02.390Z,4.00
2022-08-28T08:22:04.205Z,4.30
2022-08-28T08:27:06.679Z,4.00
2022-08-28T08:32:11.042Z,4.10
2022-08-28T08:37:13.601Z,3.80
2022-08-28T08:42:25.381Z,4.30
2022-08-28T08:47:47.272Z,4.05
2022-08-28T08:53:00.979Z,3.83
2022-08-28T08:58:34.884Z,3.75
2022-08-28T09:03:47.407Z,4.13
2022-08-28T09:09:03.180Z,3.72
2022-08-28T09:14:36.310Z,3.63
2022-08-28T09:19:38.255Z,3.75
2022-08-28T09:24:41.184Z,3.65
2022-08-28T09:29:47.404Z,3.38
2022-08-28T09:35:03.456Z,3.70
2022-08-28T09:40:51.790Z,3.80
2022-08-28T09:46:07.332Z,4.28
2022-08-28T09:51:28.038Z,4.18
2022-08-28T09:56:35.724Z,3.83
2022-08-28T10:01:44.618Z,3.92
2022-08-28T10:06:59.717Z,3.92
2022-08-28T10:12:36.562Z,3.70
2022-08-28T10:17:55.505Z,3.80
2022-08-28T10:23:17.037Z,3.80
2022-08-28T10:28:22.180Z,3.67
2022-08-28T10:33:39.700Z,3.65
2022-08-28T10:38:52.977Z,3.90
2022-08-28T10:43:59.900Z,3.45
2022-08-28T10:49:21.757Z,3.22
2022-08-28T10:54:34.175Z,3.20
2022-08-28T10:59:41.893Z,3.17
2022-08-28T11:04:47.568Z,2.90
2022-08-28T11:09:49.601Z,3.03
2022-08-28T11:14:51.618Z,2.80
2022-08-28T11:20:08.818Z,2.50
2022-08-28T11:25:26.583Z,3.05
2022-08-28T11:30:36.247Z,2.47
2022-08-28T11:35:50.641Z,3.10
2022-08-28T11:40:55.781Z,2.85
2022-08-28T11:46:00.654Z,2.92
2022-08-28T11:51:13.670Z,2.65
2022-08-28T11:56:56.541Z,2.97
2022-08-28T12:02:37.094Z,2.30
2022-08-28T12:07:45.820Z,2.72
2022-08-28T12:12:47.568Z,2.63
2022-08-28T12:17:50.326Z,2.90
2022-08-28T12:22:56.001Z,2.15
2022-08-28T12:28:03.734Z,2.50
2022-08-28T12:33:20.215Z,2.80
2022-08-28T12:38:22.540Z,1.95
2022-08-28T12:43:31.336Z,2.22
2022-08-28T12:48:47.811Z,2.35
2022-08-28T12:53:56.028Z,2.00
2022-08-28T12:59:27.179Z,2.00
2022-08-28T13:04:36.830Z,2.20
2022-08-28T13:09:44.649Z,2.50
2022-08-28T13:14:47.078Z,2.72
2022-08-28T13:20:03.573Z,1.98
2022-08-28T13:25:06.499Z,1.52
2022-08-28T13:30:14.430Z,2.03
2022-08-28T13:35:22.056Z,1.75
2022-08-28T13:40:57.582Z,1.67
2022-08-28T13:46:00.478Z,2.15
2022-08-28T13:51:10.507Z,2.13
2022-08-28T13:56:12.616Z,1.90
2022-08-28T14:01:18.874Z,2.10
2022-08-28T14:06:26.993Z,2.13
2022-08-28T14:11:34.529Z,1.92
2022-08-28T14:16:39.675Z,1.58
2022-08-28T14:21:41.781Z,1.52
2022-08-28T14:26:45.054Z,1.77
2022-08-28T14:31:47.786Z,1.63
2022-08-28T14:36:55.033Z,1.83
2022-08-28T14:41:57.160Z,1.98
2022-08-28T14:46:59.101Z,1.70
2022-08-28T14:52:00.972Z,2.42
2022-08-28T14:57:02.778Z,2.10
2022-08-28T15:02:05.452Z,2.00
2022-08-28T15:07:10.664Z,1.75
2022-08-28T15:12:12.484Z,2.17
2022-08-28T15:17:14.651Z,2.28
2022-08-28T15:22:27.011Z,2.15
2022-08-28T15:27:29.267Z,1.92
2022-08-28T15:32:31.004Z,2.22
2022-08-28T15:37:32.869Z,1.98
2022-08-28T15:42:34.628Z,1.92
2022-08-28T15:47:37.117Z,1.88
2022-08-28T15:52:39.012Z,2.03
2022-08-28T15:57:40.744Z,1.50
2022-08-28T16:02:42.920Z,1.80
2022-08-28T16:07:44.783Z,1.77
2022-08-28T16:12:47.865Z,2.15
2022-08-28T16:17:53.508Z,1.67
2022-08-28T16:22:55.333Z,2.03
2022-08-28T16:27:57.428Z,1.67
2022-08-28T16:32:59.200Z,2.20
2022-08-28T16:38:01.485Z,1.95
2022-08-28T16:43:03.575Z,1.85
2022-08-28T16:48:08.087Z,2.00
2022-08-28T16:53:10.548Z,1.85
2022-08-28T16:58:16.339Z,1.67
2022-08-28T17:03:21.984Z,1.60
2022-08-28T17:08:27.456Z,1.88
2022-08-28T17:13:31.159Z,2.00
2022-08-28T17:18:34.960Z,1.63
2022-08-28T17:23:36.992Z,1.80
2022-08-28T17:28:40.405Z,1.58
2022-08-28T17:33:44.235Z,1.80
2022-08-28T17:38:46.503Z,1.75
2022-08-28T17:43:48.495Z,2.00
2022-08-28T17:48:55.718Z,1.77
2022-08-28T17:53:57.962Z,2.03
2022-08-28T17:58:59.729Z,1.90
2022-08-28T18:04:01.868Z,2.17
2022-08-28T18:09:04.774Z,1.90
2022-08-28T18:14:07.165Z,1.98
2022-08-28T18:19:10.359Z,2.40
2022-08-28T18:24:13.310Z,2.08
2022-08-28T18:29:15.293Z,2.00
2022-08-28T18:34:17.139Z,2.28
2022-08-28T18:39:29.377Z,2.30
2022-08-28T18:44:32.478Z,2.10
2022-08-28T18:49:34.564Z,1.80
2022-08-28T18:54:36.673Z,1.67
2022-08-28T18:59:39.532Z,1.70
2022-08-28T19:04:42.665Z,1.98
2022-08-28T19:09:44.385Z,2.00
2022-08-28T19:14:46.209Z,1.60
2022-08-28T19:19:48.474Z,1.73
2022-08-28T19:24:50.445Z,2.10
2022-08-28T19:29:52.201Z,1.70
2022-08-28T19:34:53.977Z,1.98
2022-08-28T19:39:56.697Z,2.00
2022-08-28T19:44:59.989Z,1.92
2022-08-28T19:50:02.820Z,2.72
2022-08-28T19:55:06.099Z,2.33
2022-08-28T20:00:08.999Z,1.98
2022-08-28T20:05:11.780Z,2.00
2022-08-28T20:10:14.369Z,2.00
2022-08-28T20:15:18.290Z,2.10
2022-08-28T20:20:21.257Z,2.58
2022-08-28T20:25:23.567Z,2.00
2022-08-28T20:30:25.279Z,2.10
2022-08-28T20:35:27.624Z,2.38
2022-08-28T20:40:30.231Z,2.22
2022-08-28T20:45:32.193Z,3.00
2022-08-28T20:50:33.976Z,2.60
2022-08-28T20:55:35.712Z,3.45
2022-08-28T21:00:37.545Z,3.22
2022-08-28T21:05:42.676Z,2.97
2022-08-28T21:10:46.920Z,2.80
2022-08-28T21:15:48.745Z,3.00
2022-08-28T21:20:50.598Z,3.20
2022-08-28T21:25:52.296Z,3.17
2022-08-28T21:30:54.373Z,3.00
2022-08-28T21:35:56.147Z,3.10
2022-08-28T21:41:02.484Z,2.60
2022-08-28T21:46:05.503Z,2.80
2022-08-28T21:51:09.827Z,3.00
2022-08-28T21:56:17.195Z,3.00
2022-08-28T22:01:20.772Z,2.90
2022-08-28T22:06:24.477Z,3.13
2022-08-28T22:11:27.113Z,3.03
2022-08-28T22:16:29.590Z,2.33
2022-08-28T22:21:49.821Z,2.20
2022-08-28T22:26:53.286Z,2.30
2022-08-28T22:31:59.483Z,2.15
2022-08-28T22:37:01.277Z,2.10
2022-08-28T22:42:03.385Z,2.15
2022-08-28T22:47:05.533Z,2.03
2022-08-28T22:52:10.249Z,1.92
2022-08-28T22:57:12.062Z,2.10
2022-08-28T23:02:13.754Z,2.20
2022-08-28T23:07:15.405Z,2.50
2022-08-28T23:12:17.517Z,2.20
2022-08-28T23:17:19.451Z,2.22
2022-08-28T23:22:21.149Z,2.30
2022-08-28T23:27:38.206Z,2.47
2022-08-28T23:32:40.344Z,2.03
2022-08-28T23:37:46.681Z,2.20
2022-08-28T23:42:50.873Z,2.10
2022-08-28T23:47:52.553Z,2.00
2022-08-28T23:52:54.248Z,2.20
2022-08-28T23:57:56.060Z,2.17
